Aérodrome :
LOGIN :

S'inscrire | Disclaimer

   EN    FR    IT 

 










Légende :    VFR   VFR Marginal   IFR   IFR Intensif   IFR Très Intensif
Visi : 
Plafond : 
>= 8 km
>= 3000ft
5 à 8 km
1000 à 3000 ft
1500m à 5 km
500 à 1000 ft
800 à 1500m
200 à 500 ft
< 800m
< 200 ft
Symboles :   Orages  Brouillard  Fortes neiges  Fortes précipitations  Vent > 20 kt
SIGMETs :   Divers  Orages  Givrage  Turbulence  Onde Orograph.  Cendres Volcan.






- Altitude de l'aérodrome : 135 ft
- Code IATA : EDI


EGPH - Edinburgh

DERNIER METAR :
  • 140350Z 13002KT CAVOK 05/05 Q1007

METARs EXPIRÉS :
  • 140320Z 00000KT CAVOK 06/06 Q1006
  • 140250Z 30003KT CAVOK 07/07 Q1006
  • 140220Z 25004KT 9000 NSC 05/05 Q1006
  • 140150Z 22006KT 9000 FEW041 05/05 Q1006
  • 140120Z 25005KT 9000 SCT041 06/06 Q1005

TAF TAF EGPH
Valide du 14 à 00h jusqu'au 15 à 00h UTC


132257Z 1400/1424 VRB04KT 9999 FEW015 SCT030
PROB40
TEMPO 1400/1403 6000 -RADZ BKN012
PROB30 1403/1408 5000 BR
TEMPO 1418/1424 6000
PROB40
TEMPO 1422/1424 BKN008
ATIS : +44 131 339 2823



MET'MAP, la Météo Aéronautique d'un coup d'oeil ! - Copyright ORBIFLY Décembre 2007 - Disclaimer

ORBIFLY MET'MAP TEAM :

Programmation & Développement : Alexandra Zaïnal
Conception & Développement : Baudouin d'Aumeries
Co-Programmation & Développement : Marc-Olivier Méhu
Soutien technique & logistique : Manuel Goepfert

Contact : metmap@orbifly.com




SOURCES & CREDITS :

   NOAA